Time;durP1;ratioP1;P1;durP2;ratioP2;P2;SDS_P1;SDS_P2;PMS_P1;PMS_P2;Temp;Humidity;BMP_temperature;BMP_pressure;BME280_temperature;BME280_humidity;BME280_pressure;Samples;Min_cycle;Max_cycle;Signal;HPM_P1;HPM_P2
2023/06/06 00:01:59;;;;;;;18.42;5.55;;;;;;;;;;6369577;22;20109;-94
2023/06/06 00:04:27;;;;;;;17.52;5.40;;;;;;;;;;6343638;22;20022;-95
2023/06/06 00:06:54;;;;;;;15.65;5.35;;;;;;;;;;6316868;22;20076;-94
2023/06/06 00:09:20;;;;;;;18.27;5.95;;;;;;;;;;6317819;22;20035;-94
2023/06/06 00:11:48;;;;;;;12.80;5.35;;;;;;;;;;6314793;22;20093;-96
2023/06/06 00:14:18;;;;;;;20.38;6.15;;;;;;;;;;6316368;22;20010;-95
2023/06/06 00:16:49;;;;;;;15.48;6.22;;;;;;;;;;6316475;22;20006;-94
2023/06/06 00:19:22;;;;;;;10.55;4.88;;;;;;;;;;6317551;22;20006;-94
2023/06/06 00:21:48;;;;;;;18.15;6.00;;;;;;;;;;6341542;22;20082;-95
2023/06/06 00:24:15;;;;;;;14.60;6.22;;;;;;;;;;6315631;22;20010;-95
2023/06/06 00:26:45;;;;;;;12.32;5.82;;;;;;;;;;6342277;22;20013;-95
2023/06/06 00:29:11;;;;;;;16.40;6.10;;;;;;;;;;6318993;22;20022;-94
2023/06/06 00:31:37;;;;;;;15.70;7.00;;;;;;;;;;6342608;22;20056;-95
2023/06/06 00:34:06;;;;;;;13.32;5.75;;;;;;;;;;6343329;22;19998;-94
2023/06/06 00:36:32;;;;;;;13.88;5.97;;;;;;;;;;6317740;22;20002;-94
2023/06/06 00:38:59;;;;;;;11.18;5.60;;;;;;;;;;6319707;22;20021;-95
2023/06/06 00:41:25;;;;;;;18.52;6.50;;;;;;;;;;6344141;22;20061;-95
2023/06/06 00:43:51;;;;;;;16.50;6.05;;;;;;;;;;6317829;22;20017;-94
2023/06/06 00:46:30;;;;;;;19.33;5.88;;;;;;;;;;6317799;22;20032;-94
2023/06/06 00:48:58;;;;;;;15.43;6.35;;;;;;;;;;6346252;22;20464;-95
2023/06/06 00:51:25;;;;;;;11.57;5.43;;;;;;;;;;6321275;22;19998;-95
2023/06/06 00:53:52;;;;;;;17.98;6.05;;;;;;;;;;6319747;22;20036;-94
2023/06/06 00:56:19;;;;;;;11.30;6.25;;;;;;;;;;6321211;22;20002;-95
2023/06/06 00:58:46;;;;;;;14.45;6.20;;;;;;;;;;6321016;22;20041;-95
2023/06/06 01:01:13;;;;;;;13.13;6.18;;;;;;;;;;6320738;22;20056;-95
2023/06/06 01:03:40;;;;;;;18.08;7.05;;;;;;;;;;6319976;22;20017;-95
2023/06/06 01:06:08;;;;;;;20.08;6.85;;;;;;;;;;6319772;22;20021;-95
2023/06/06 01:08:36;;;;;;;16.08;7.13;;;;;;;;;;6373393;22;20086;-94
2023/06/06 01:11:06;;;;;;;17.38;6.70;;;;;;;;;;6346881;22;20028;-95
2023/06/06 01:13:54;;;;;;;13.25;6.47;;;;;;;;;;6345450;22;20026;-95
2023/06/06 01:16:24;;;;;;;14.10;6.07;;;;;;;;;;6349913;22;20009;-94
2023/06/06 01:18:51;;;;;;;25.92;7.18;;;;;;;;;;6325513;22;20030;-95
2023/06/06 01:21:17;;;;;;;17.30;6.72;;;;;;;;;;6324543;22;20448;-94
2023/06/06 01:23:43;;;;;;;18.73;5.75;;;;;;;;;;6323299;22;20423;-95
2023/06/06 01:26:13;;;;;;;17.13;6.57;;;;;;;;;;6324228;22;20067;-95
2023/06/06 01:28:40;;;;;;;11.75;6.47;;;;;;;;;;6324704;22;20030;-95
2023/06/06 01:31:10;;;;;;;17.88;6.70;;;;;;;;;;6352838;22;20032;-96
2023/06/06 01:33:40;;;;;;;15.13;7.32;;;;;;;;;;6363541;22;19986;-95
2023/06/06 01:36:21;;;;;;;22.98;6.78;;;;;;;;;;6362263;22;19994;-96
2023/06/06 01:38:57;;;;;;;14.50;6.45;;;;;;;;;;6359199;22;20002;-95
2023/06/06 01:41:24;;;;;;;15.90;6.18;;;;;;;;;;6325539;22;20603;-94
2023/06/06 01:43:52;;;;;;;15.15;6.63;;;;;;;;;;6324129;22;20125;-94
2023/06/06 01:46:19;;;;;;;20.40;7.13;;;;;;;;;;6347211;22;20037;-94
2023/06/06 01:48:47;;;;;;;16.25;6.47;;;;;;;;;;6346950;22;20138;-94
2023/06/06 01:51:13;;;;;;;13.25;6.22;;;;;;;;;;6321368;22;20013;-94
2023/06/06 01:53:39;;;;;;;20.70;7.03;;;;;;;;;;6344643;22;20033;-94
2023/06/06 01:56:12;;;;;;;17.90;6.80;;;;;;;;;;6320509;22;20062;-95
2023/06/06 01:58:39;;;;;;;19.65;7.10;;;;;;;;;;6321859;22;20085;-95
2023/06/06 02:01:06;;;;;;;20.63;6.72;;;;;;;;;;6318686;22;20006;-94
2023/06/06 02:03:32;;;;;;;21.35;7.18;;;;;;;;;;6316888;22;20043;-95
2023/06/06 02:06:01;;;;;;;15.85;7.20;;;;;;;;;;6343511;22;20148;-95
2023/06/06 02:08:27;;;;;;;15.35;7.47;;;;;;;;;;6317148;22;20020;-95
2023/06/06 02:10:55;;;;;;;15.50;6.47;;;;;;;;;;6315136;22;20049;-94
2023/06/06 02:13:21;;;;;;;23.38;6.60;;;;;;;;;;6317524;22;20006;-94
2023/06/06 02:15:47;;;;;;;17.02;6.00;;;;;;;;;;6318232;22;20444;-95
2023/06/06 02:18:17;;;;;;;16.98;6.43;;;;;;;;;;6343836;22;20344;-93
2023/06/06 02:20:43;;;;;;;13.70;6.32;;;;;;;;;;6317114;22;20534;-94
2023/06/06 02:23:09;;;;;;;15.00;5.80;;;;;;;;;;6318425;22;20014;-94
2023/06/06 02:25:38;;;;;;;22.27;6.28;;;;;;;;;;6317538;22;20026;-94
2023/06/06 02:28:08;;;;;;;17.13;6.18;;;;;;;;;;6343197;22;20014;-94
2023/06/06 02:30:34;;;;;;;14.18;6.18;;;;;;;;;;6342861;22;20002;-95
2023/06/06 02:33:00;;;;;;;21.55;7.20;;;;;;;;;;6318248;22;20066;-94
2023/06/06 02:35:26;;;;;;;23.15;5.93;;;;;;;;;;6318104;22;20038;-94
2023/06/06 02:37:52;;;;;;;15.23;6.88;;;;;;;;;;6319144;22;20146;-94
2023/06/06 02:40:21;;;;;;;17.95;6.97;;;;;;;;;;6319314;22;20440;-94
2023/06/06 02:42:47;;;;;;;16.23;6.35;;;;;;;;;;6345434;22;20017;-94
2023/06/06 02:45:13;;;;;;;14.38;6.28;;;;;;;;;;6315644;22;20491;-95
2023/06/06 02:47:40;;;;;;;18.50;6.15;;;;;;;;;;6319676;22;20385;-94
2023/06/06 02:50:07;;;;;;;26.83;6.70;;;;;;;;;;6316895;22;20015;-94
2023/06/06 02:52:33;;;;;;;17.75;6.65;;;;;;;;;;6341132;22;20002;-94
2023/06/06 02:55:00;;;;;;;15.30;6.40;;;;;;;;;;6340822;22;20005;-95
2023/06/06 02:57:26;;;;;;;15.80;7.38;;;;;;;;;;6338980;22;20006;-95
2023/06/06 02:59:53;;;;;;;20.13;6.43;;;;;;;;;;6339512;22;20010;-96
2023/06/06 03:02:22;;;;;;;21.13;6.55;;;;;;;;;;6313016;22;20054;-95
2023/06/06 03:04:48;;;;;;;20.85;6.95;;;;;;;;;;6316569;22;20067;-94
2023/06/06 03:07:16;;;;;;;17.25;6.20;;;;;;;;;;6316194;22;20010;-95
2023/06/06 03:09:42;;;;;;;14.35;6.07;;;;;;;;;;6314874;22;20071;-96
2023/06/06 03:12:09;;;;;;;15.30;6.93;;;;;;;;;;6313553;22;20006;-95
2023/06/06 03:14:35;;;;;;;18.42;6.32;;;;;;;;;;6340340;22;20006;-95
2023/06/06 03:17:09;;;;;;;14.93;6.38;;;;;;;;;;6341441;22;19999;-94
2023/06/06 03:19:35;;;;;;;18.35;7.00;;;;;;;;;;6314238;22;20534;-95
2023/06/06 03:22:02;;;;;;;11.95;5.97;;;;;;;;;;6315269;22;20014;-95
2023/06/06 03:24:29;;;;;;;17.55;7.00;;;;;;;;;;6315122;22;20356;-95
2023/06/06 03:26:56;;;;;;;16.50;6.25;;;;;;;;;;6315033;22;20094;-95
2023/06/06 03:29:22;;;;;;;19.98;6.70;;;;;;;;;;6315133;22;20022;-96
2023/06/06 03:31:51;;;;;;;12.38;6.35;;;;;;;;;;6315066;22;20025;-95
2023/06/06 03:34:18;;;;;;;21.30;7.25;;;;;;;;;;6315680;22;20007;-95
2023/06/06 03:36:44;;;;;;;16.23;6.97;;;;;;;;;;6315458;22;20014;-95
2023/06/06 03:39:10;;;;;;;13.18;6.38;;;;;;;;;;6315497;22;20059;-95
2023/06/06 03:41:36;;;;;;;13.82;6.38;;;;;;;;;;6315465;22;20043;-95
2023/06/06 03:44:06;;;;;;;17.90;6.20;;;;;;;;;;6315710;22;20038;-95
2023/06/06 03:46:34;;;;;;;14.63;6.85;;;;;;;;;;6314269;22;20015;-95
2023/06/06 03:49:00;;;;;;;18.48;7.10;;;;;;;;;;6316490;22;20014;-95
2023/06/06 03:51:50;;;;;;;17.55;6.05;;;;;;;;;;6341141;22;20439;-95
2023/06/06 03:54:16;;;;;;;15.80;6.55;;;;;;;;;;6322080;22;20060;-95
2023/06/06 03:56:50;;;;;;;18.02;6.53;;;;;;;;;;6340899;22;20425;-95
2023/06/06 03:59:16;;;;;;;21.02;6.70;;;;;;;;;;6315107;22;20022;-96
2023/06/06 04:01:44;;;;;;;12.57;6.05;;;;;;;;;;6315229;22;20014;-96
2023/06/06 04:04:13;;;;;;;16.77;6.55;;;;;;;;;;6340894;22;20006;-95
2023/06/06 04:06:39;;;;;;;19.17;5.85;;;;;;;;;;6313844;22;20038;-95
2023/06/06 04:09:13;;;;;;;17.10;6.28;;;;;;;;;;6314480;22;20391;-96
2023/06/06 04:11:42;;;;;;;17.63;5.85;;;;;;;;;;6311885;22;20030;-95
2023/06/06 04:14:14;;;;;;;16.02;6.47;;;;;;;;;;6314049;22;20018;-95
2023/06/06 04:16:40;;;;;;;16.95;5.82;;;;;;;;;;6338107;22;19998;-95
2023/06/06 04:19:07;;;;;;;19.23;6.70;;;;;;;;;;6312495;22;20085;-95
2023/06/06 04:21:33;;;;;;;14.00;6.55;;;;;;;;;;6311650;22;20021;-95
2023/06/06 04:24:00;;;;;;;13.63;6.45;;;;;;;;;;6338630;22;20002;-96
2023/06/06 04:26:27;;;;;;;14.80;7.35;;;;;;;;;;6338520;22;20013;-95
2023/06/06 04:29:03;;;;;;;13.95;6.00;;;;;;;;;;6340719;22;20106;-95
2023/06/06 04:31:29;;;;;;;12.43;5.63;;;;;;;;;;6313387;22;20034;-95
2023/06/06 04:33:56;;;;;;;15.35;5.78;;;;;;;;;;6314722;22;20041;-96
2023/06/06 04:36:23;;;;;;;17.38;5.85;;;;;;;;;;6313703;22;20373;-95
2023/06/06 04:38:51;;;;;;;14.23;5.95;;;;;;;;;;6314966;22;20033;-95
2023/06/06 04:41:25;;;;;;;15.20;6.13;;;;;;;;;;6341176;22;20006;-94
2023/06/06 04:44:02;;;;;;;16.00;6.72;;;;;;;;;;6318245;22;20011;-95
2023/06/06 04:46:52;;;;;;;17.30;6.22;;;;;;;;;;6315847;22;20014;-95
2023/06/06 04:49:21;;;;;;;14.65;5.40;;;;;;;;;;6347518;22;20010;-95
2023/06/06 04:51:47;;;;;;;12.98;5.75;;;;;;;;;;6315903;22;20071;-95
2023/06/06 04:54:23;;;;;;;12.52;5.13;;;;;;;;;;6347088;22;20010;-95
2023/06/06 04:56:51;;;;;;;16.88;6.53;;;;;;;;;;6340629;22;20003;-95
2023/06/06 04:59:26;;;;;;;19.67;5.95;;;;;;;;;;6316204;22;20014;-95
2023/06/06 05:02:13;;;;;;;12.95;5.78;;;;;;;;;;6326433;22;20003;-93
2023/06/06 05:07:55;;;;;;;;;;;;;;;;;;;;;
2023/06/06 05:10:34;;;;;;;12.75;4.70;;;;;;;;;;6254248;22;20015;-92
2023/06/06 05:13:01;;;;;;;14.63;5.38;;;;;;;;;;6332275;22;19999;-92
2023/06/06 05:16:07;;;;;;;15.50;5.32;;;;;;;;;;6355699;22;20026;-93
2023/06/06 05:19:09;;;;;;;14.18;4.95;;;;;;;;;;6381039;22;20007;-93
2023/06/06 05:21:49;;;;;;;17.55;5.53;;;;;;;;;;6298979;22;20014;-92
2023/06/06 05:24:43;;;;;;;15.20;5.88;;;;;;;;;;6292653;22;20030;-93
2023/06/06 05:27:55;;;;;;;13.65;5.63;;;;;;;;;;6314930;22;20393;-93
2023/06/06 05:30:35;;;;;;;12.07;4.85;;;;;;;;;;6226594;22;20016;-93
2023/06/06 05:33:25;;;;;;;12.85;4.85;;;;;;;;;;6224495;23;20004;-93
2023/06/06 05:36:02;;;;;;;16.33;4.57;;;;;;;;;;6224619;23;20012;-94
2023/06/06 05:38:31;;;;;;;16.05;5.35;;;;;;;;;;6212158;23;20008;-93
2023/06/06 05:41:02;;;;;;;18.25;4.47;;;;;;;;;;6196243;23;20028;-93
2023/06/06 05:43:33;;;;;;;10.55;4.90;;;;;;;;;;6201065;23;20079;-93
2023/06/06 05:46:05;;;;;;;13.63;4.93;;;;;;;;;;6199802;22;20025;-92
2023/06/06 05:48:41;;;;;;;10.30;4.03;;;;;;;;;;6202087;23;20020;-93
2023/06/06 05:51:23;;;;;;;10.63;4.28;;;;;;;;;;6225495;23;20007;-94
2023/06/06 05:54:00;;;;;;;8.98;3.67;;;;;;;;;;6286809;22;20047;-93
2023/06/06 05:56:36;;;;;;;10.48;4.10;;;;;;;;;;6235246;22;20535;-93
2023/06/06 05:59:14;;;;;;;10.48;3.88;;;;;;;;;;6277127;22;20011;-93
2023/06/06 06:01:45;;;;;;;11.50;3.83;;;;;;;;;;6334387;22;20010;-93
2023/06/06 06:04:11;;;;;;;17.42;3.60;;;;;;;;;;6334428;22;20041;-93
2023/06/06 06:06:47;;;;;;;13.48;3.83;;;;;;;;;;6333239;22;20006;-93
2023/06/06 06:09:14;;;;;;;;;;;;;;;;;;6361284;22;20002;-93
2023/06/06 06:11:41;;;;;;;13.82;4.07;;;;;;;;;;6355120;22;19898;-93
2023/06/06 06:14:10;;;;;;;7.38;3.40;;;;;;;;;;6329415;22;20034;-92
2023/06/06 06:16:36;;;;;;;11.77;3.88;;;;;;;;;;6330016;22;20467;-93
2023/06/06 06:19:05;;;;;;;15.00;3.35;;;;;;;;;;6328705;22;20010;-94
2023/06/06 06:21:40;;;;;;;8.43;3.13;;;;;;;;;;6327713;22;20007;-93
2023/06/06 06:24:08;;;;;;;9.85;4.00;;;;;;;;;;6352372;22;20010;-94
2023/06/06 06:26:34;;;;;;;8.65;3.35;;;;;;;;;;6323932;22;20040;-89
2023/06/06 06:29:05;;;;;;;8.77;2.97;;;;;;;;;;6348359;22;20337;-87
2023/06/06 06:31:34;;;;;;;13.85;3.17;;;;;;;;;;6351115;22;19998;-87
2023/06/06 06:36:48;;;;;;;7.50;2.90;;;;;;;;;;6343412;22;20014;-88
2023/06/06 06:39:18;;;;;;;8.57;3.40;;;;;;;;;;6348561;22;20404;-87
2023/06/06 06:41:47;;;;;;;15.60;3.22;;;;;;;;;;6378157;22;20485;-88
2023/06/06 06:44:16;;;;;;;4.63;3.05;;;;;;;;;;6348098;22;20013;-88
2023/06/06 06:46:43;;;;;;;9.10;3.53;;;;;;;;;;6349119;22;20006;-89
2023/06/06 06:49:15;;;;;;;13.48;3.25;;;;;;;;;;6323115;22;20014;-86
2023/06/06 06:51:43;;;;;;;14.35;4.00;;;;;;;;;;6351053;22;20078;-88
2023/06/06 06:54:12;;;;;;;10.02;3.40;;;;;;;;;;6351078;22;20009;-88
2023/06/06 06:56:42;;;;;;;9.63;3.25;;;;;;;;;;6351843;22;19998;-87
2023/06/06 06:59:18;;;;;;;8.48;3.28;;;;;;;;;;6350057;22;20006;-88
2023/06/06 07:01:48;;;;;;;;;;;;;;;;;;6351754;22;20030;-88
2023/06/06 07:04:36;;;;;;;6.22;3.13;;;;;;;;;;6349827;22;19898;-88
2023/06/06 07:07:03;;;;;;;7.05;2.78;;;;;;;;;;6350817;22;20002;-88
2023/06/06 07:09:30;;;;;;;16.80;4.10;;;;;;;;;;6373694;22;20064;-88
2023/06/06 07:11:56;;;;;;;10.60;3.08;;;;;;;;;;6322121;22;20014;-88
2023/06/06 07:14:31;;;;;;;8.77;3.30;;;;;;;;;;6323722;22;20002;-89
2023/06/06 07:16:58;;;;;;;13.18;2.78;;;;;;;;;;6328947;22;20006;-89
2023/06/06 07:19:26;;;;;;;8.50;3.47;;;;;;;;;;6322980;22;20014;-88
2023/06/06 07:22:12;;;;;;;7.32;3.22;;;;;;;;;;6372620;22;20003;-88
2023/06/06 07:24:41;;;;;;;15.63;3.45;;;;;;;;;;6350398;22;20006;-88
2023/06/06 07:27:27;;;;;;;7.40;3.22;;;;;;;;;;6347765;22;20017;-89
2023/06/06 07:33:01;;;;;;;7.10;2.95;;;;;;;;;;6339549;22;20017;-88
2023/06/06 07:35:36;;;;;;;8.80;3.42;;;;;;;;;;6323314;22;20013;-88
2023/06/06 07:38:04;;;;;;;6.57;2.88;;;;;;;;;;6348413;22;20021;-88
2023/06/06 07:40:31;;;;;;;6.00;2.83;;;;;;;;;;6320940;22;20030;-89
2023/06/06 07:42:59;;;;;;;8.40;2.75;;;;;;;;;;6346324;22;20088;-89
2023/06/06 07:45:27;;;;;;;13.70;3.17;;;;;;;;;;6376256;22;20095;-88
2023/06/06 07:48:03;;;;;;;10.63;3.80;;;;;;;;;;6375168;22;20022;-88
2023/06/06 07:50:29;;;;;;;10.38;3.40;;;;;;;;;;6321886;22;20007;-89
2023/06/06 07:52:55;;;;;;;11.60;3.35;;;;;;;;;;6325187;22;20002;-89
2023/06/06 07:55:24;;;;;;;7.78;3.55;;;;;;;;;;6323835;22;20083;-89
2023/06/06 07:58:01;;;;;;;11.80;4.03;;;;;;;;;;6348958;22;20029;-89
2023/06/06 08:00:27;;;;;;;10.38;3.50;;;;;;;;;;6323749;22;20021;-89
2023/06/06 08:02:55;;;;;;;10.57;3.47;;;;;;;;;;6374279;22;20018;-89
2023/06/06 08:05:41;;;;;;;8.20;2.90;;;;;;;;;;6327166;22;20313;-89
2023/06/06 08:08:10;;;;;;;16.20;3.17;;;;;;;;;;6329980;22;20014;-89
2023/06/06 08:10:36;;;;;;;9.52;3.55;;;;;;;;;;6325970;22;20006;-89
2023/06/06 08:15:49;;;;;;;9.20;3.20;;;;;;;;;;6324758;22;20017;-89
2023/06/06 08:18:16;;;;;;;7.90;3.80;;;;;;;;;;6350543;22;20440;-89
2023/06/06 08:20:43;;;;;;;8.52;3.25;;;;;;;;;;6349225;22;20014;-89
2023/06/06 08:23:11;;;;;;;11.02;3.85;;;;;;;;;;6354261;22;20081;-89
2023/06/06 08:25:43;;;;;;;12.27;3.78;;;;;;;;;;6352350;22;20010;-89
2023/06/06 08:28:22;;;;;;;9.07;3.60;;;;;;;;;;6350846;22;20006;-89
2023/06/06 08:31:02;;;;;;;6.70;3.45;;;;;;;;;;6348649;22;20018;-88
2023/06/06 08:33:41;;;;;;;8.90;3.15;;;;;;;;;;6350976;22;20054;-90
2023/06/06 08:36:29;;;;;;;9.10;3.38;;;;;;;;;;6300837;22;20014;-88
2023/06/06 08:39:01;;;;;;;12.07;3.65;;;;;;;;;;6323389;22;20061;-89
2023/06/06 08:41:57;;;;;;;6.07;3.20;;;;;;;;;;6348087;22;20486;-90
2023/06/06 08:45:05;;;;;;;7.25;3.58;;;;;;;;;;6319094;22;20007;-89
2023/06/06 08:50:53;;;;;;;10.50;3.70;;;;;;;;;;6127140;23;20065;-89
2023/06/06 08:53:27;;;;;;;7.10;3.13;;;;;;;;;;6149910;23;20022;-89
2023/06/06 08:56:44;;;;;;;;;;;;;;;;;;;;;
2023/06/06 08:59:23;;;;;;;10.68;3.67;;;;;;;;;;6132066;23;19998;-87
2023/06/06 09:05:08;;;;;;;12.45;3.45;;;;;;;;;;6060356;23;20042;-87
2023/06/06 09:40:47;;;;;;;13.23;5.10;;;;;;;;;;6383858;22;20052;-90
2023/06/06 09:43:20;;;;;;;6.50;3.80;;;;;;;;;;6358688;22;20017;-89
2023/06/06 09:46:32;;;;;;;;;;;;;;;;;;;;;
2023/06/06 09:49:15;;;;;;;9.05;4.22;;;;;;;;;;6388019;22;20002;-88
2023/06/06 09:51:57;;;;;;;;;;;;;;;;;;;;;
2023/06/06 09:54:46;;;;;;;;;;;;;;;;;;;;;
2023/06/06 10:00:37;;;;;;;;;;;;;;;;;;;;;
2023/06/06 10:03:47;;;;;;;6.10;4.13;;;;;;;;;;6227563;22;20039;-89
2023/06/06 10:06:10;;;;;;;8.88;4.15;;;;;;;;;;6385851;22;20009;-88
2023/06/06 10:08:42;;;;;;;10.25;4.13;;;;;;;;;;6388396;22;20010;-89
2023/06/06 10:11:24;;;;;;;10.15;3.80;;;;;;;;;;6363097;22;20006;-89
2023/06/06 10:13:53;;;;;;;9.50;3.97;;;;;;;;;;6360346;22;20026;-88
2023/06/06 10:16:23;;;;;;;8.70;4.47;;;;;;;;;;6360694;22;20006;-88
2023/06/06 10:19:05;;;;;;;7.15;3.88;;;;;;;;;;6361269;22;20093;-88
2023/06/06 10:21:53;;;;;;;13.27;3.67;;;;;;;;;;6359736;22;20107;-88
2023/06/06 10:24:37;;;;;;;11.30;4.60;;;;;;;;;;6362360;22;20491;-88
2023/06/06 10:27:34;;;;;;;;;;;;;;;;;;;;;
2023/06/06 10:30:32;;;;;;;;;;;;;;;;;;;;;
2023/06/06 10:36:11;;;;;;;8.77;4.18;;;;;;;;;;6367397;22;20044;-89
2023/06/06 10:38:38;;;;;;;6.43;3.20;;;;;;;;;;6362050;22;20022;-89
2023/06/06 10:41:23;;;;;;;8.93;3.92;;;;;;;;;;6361878;22;20014;-87
2023/06/06 10:44:46;;;;;;;10.68;4.05;;;;;;;;;;6363455;22;20010;-89
2023/06/06 10:47:28;;;;;;;13.00;3.97;;;;;;;;;;6380947;22;20010;-89
2023/06/06 10:50:06;;;;;;;12.63;3.83;;;;;;;;;;6386005;22;20006;-89
2023/06/06 10:52:43;;;;;;;8.35;3.58;;;;;;;;;;6390748;22;20017;-90
2023/06/06 10:58:35;;;;;;;6.97;3.10;;;;;;;;;;6265238;23;20011;-88
2023/06/06 11:01:29;;;;;;;8.95;4.22;;;;;;;;;;6231148;23;19992;-89
2023/06/06 11:04:30;;;;;;;25.55;5.40;;;;;;;;;;6243493;23;20008;-89
2023/06/06 11:07:16;;;;;;;8.95;4.38;;;;;;;;;;6240928;23;19988;-89
2023/06/06 11:10:46;;;;;;;7.85;3.85;;;;;;;;;;6368302;22;20062;-90
2023/06/06 11:13:35;;;;;;;6.72;3.67;;;;;;;;;;6266085;22;20012;-90
2023/06/06 11:16:41;;;;;;;;;;;;;;;;;;;;;
2023/06/06 11:19:18;;;;;;;13.38;4.60;;;;;;;;;;6131707;23;19994;-89
2023/06/06 11:25:18;;;;;;;14.80;4.60;;;;;;;;;;6241098;22;20115;-88
2023/06/06 11:28:09;;;;;;;7.00;3.42;;;;;;;;;;6155523;23;20044;-88
2023/06/06 12:22:58;;;;;;;7.38;3.70;;;;;;;;;;6270959;22;20015;-88
2023/06/06 12:32:58;;;;;;;9.18;3.28;;;;;;;;;;6062680;23;20039;-89
2023/06/06 12:39:35;;;;;;;;;;;;;;;;;;;;;
2023/06/06 12:42:46;;;;;;;8.75;3.55;;;;;;;;;;5976966;23;20008;-87
2023/06/06 12:45:25;;;;;;;11.70;4.00;;;;;;;;;;5973580;24;20015;-89
2023/06/06 12:48:25;;;;;;;;;;;;;;;;;;;;;
2023/06/06 12:51:43;;;;;;;7.57;3.28;;;;;;;;;;5978198;23;20020;-89
2023/06/06 13:01:14;;;;;;;13.05;4.00;;;;;;;;;;6089761;23;20022;-89
2023/06/06 13:04:18;;;;;;;;;;;;;;;;;;;;;
2023/06/06 13:16:41;;;;;;;10.75;4.60;;;;;;;;;;6073721;23;20001;-89
2023/06/06 13:28:55;;;;;;;13.93;3.70;;;;;;;;;;6001176;24;20035;-89
2023/06/06 13:31:52;;;;;;;7.15;3.17;;;;;;;;;;5971296;24;20012;-88
2023/06/06 13:37:22;;;;;;;5.75;3.25;;;;;;;;;;6024818;23;20010;-89
2023/06/06 13:40:30;;;;;;;5.97;3.40;;;;;;;;;;6000588;23;20011;-89
2023/06/06 13:46:07;;;;;;;7.50;3.40;;;;;;;;;;6080464;23;20031;-89
2023/06/06 13:48:41;;;;;;;6.13;3.40;;;;;;;;;;6077745;23;20076;-88
2023/06/06 13:51:09;;;;;;;8.55;3.15;;;;;;;;;;6175327;23;20112;-87
2023/06/06 13:53:36;;;;;;;9.75;3.15;;;;;;;;;;6167865;23;20237;-88
2023/06/06 13:56:05;;;;;;;12.00;3.75;;;;;;;;;;6195111;23;20025;-88
2023/06/06 14:01:29;;;;;;;9.97;3.67;;;;;;;;;;6170965;23;20574;-88
2023/06/06 14:03:59;;;;;;;9.68;4.00;;;;;;;;;;6164709;23;20108;-88
2023/06/06 14:06:33;;;;;;;9.43;3.63;;;;;;;;;;6211141;23;20032;-88
2023/06/06 14:09:08;;;;;;;11.57;3.80;;;;;;;;;;6216093;23;20009;-88
2023/06/06 14:11:47;;;;;;;11.02;3.85;;;;;;;;;;6188188;23;20035;-88
2023/06/06 14:14:18;;;;;;;8.00;4.05;;;;;;;;;;6189593;23;20064;-87
2023/06/06 14:16:47;;;;;;;7.20;3.35;;;;;;;;;;6191568;23;20367;-88
2023/06/06 14:19:57;;;;;;;11.52;3.10;;;;;;;;;;6165179;23;20391;-88
2023/06/06 14:22:33;;;;;;;8.57;3.40;;;;;;;;;;6249876;22;20095;-88
2023/06/06 14:25:31;;;;;;;17.15;4.72;;;;;;;;;;6300702;22;20279;-88
2023/06/06 14:28:07;;;;;;;10.65;3.90;;;;;;;;;;6271238;22;20018;-88
2023/06/06 14:30:34;;;;;;;10.00;3.78;;;;;;;;;;6311629;22;20000;-88
2023/06/06 14:33:16;;;;;;;9.02;3.20;;;;;;;;;;6312514;22;20067;-87
2023/06/06 14:35:44;;;;;;;16.15;4.38;;;;;;;;;;6310952;22;20074;-88
2023/06/06 14:38:15;;;;;;;8.93;3.42;;;;;;;;;;6308443;22;20011;-88
2023/06/06 14:40:41;;;;;;;8.35;3.15;;;;;;;;;;6310336;22;20015;-88
2023/06/06 14:43:08;;;;;;;13.93;4.25;;;;;;;;;;6310275;22;20003;-88
2023/06/06 14:45:49;;;;;;;13.57;3.85;;;;;;;;;;6308585;22;20061;-88
2023/06/06 14:48:16;;;;;;;10.90;4.05;;;;;;;;;;6308366;22;20007;-89
2023/06/06 14:50:43;;;;;;;9.65;3.53;;;;;;;;;;6310890;22;20464;-88
2023/06/06 14:53:10;;;;;;;19.27;4.15;;;;;;;;;;6310835;22;20392;-88
2023/06/06 14:55:36;;;;;;;12.07;3.80;;;;;;;;;;6307190;22;20003;-88
2023/06/06 14:58:03;;;;;;;11.07;4.30;;;;;;;;;;6308100;22;20319;-87
2023/06/06 15:00:32;;;;;;;7.43;3.47;;;;;;;;;;6307140;22;20441;-89
2023/06/06 15:02:59;;;;;;;10.93;4.05;;;;;;;;;;6312609;22;20003;-88
2023/06/06 15:05:27;;;;;;;7.75;3.60;;;;;;;;;;6285711;22;20050;-86
2023/06/06 15:07:53;;;;;;;11.98;4.00;;;;;;;;;;6308003;22;20011;-89
2023/06/06 15:10:40;;;;;;;8.15;3.35;;;;;;;;;;6312114;22;20345;-88
2023/06/06 15:13:06;;;;;;;13.07;4.30;;;;;;;;;;6311650;22;20030;-89
2023/06/06 15:15:33;;;;;;;12.45;3.67;;;;;;;;;;6313195;22;20014;-87
2023/06/06 15:18:00;;;;;;;6.50;4.13;;;;;;;;;;6311691;22;20313;-89
2023/06/06 15:20:28;;;;;;;8.05;3.70;;;;;;;;;;6311463;22;20447;-90
2023/06/06 15:23:21;;;;;;;16.23;4.03;;;;;;;;;;6312781;22;20023;-89
2023/06/06 15:26:14;;;;;;;13.27;3.38;;;;;;;;;;6221759;22;20024;-89
2023/06/06 15:28:41;;;;;;;10.60;4.05;;;;;;;;;;6192366;23;20076;-89
2023/06/06 15:31:09;;;;;;;8.68;4.20;;;;;;;;;;6302201;22;20014;-88
2023/06/06 15:33:35;;;;;;;12.90;4.03;;;;;;;;;;6312688;22;20019;-89
2023/06/06 15:36:04;;;;;;;10.73;3.63;;;;;;;;;;6310562;22;20033;-87
2023/06/06 15:38:31;;;;;;;9.90;3.58;;;;;;;;;;6309938;22;20012;-88
2023/06/06 15:40:57;;;;;;;15.75;4.10;;;;;;;;;;6307042;22;20437;-88
2023/06/06 15:43:23;;;;;;;8.18;3.22;;;;;;;;;;6282025;22;20483;-87
2023/06/06 15:45:51;;;;;;;13.45;4.00;;;;;;;;;;6305943;22;20528;-89
2023/06/06 15:48:17;;;;;;;9.18;4.20;;;;;;;;;;6310238;22;20500;-88
2023/06/06 15:50:44;;;;;;;8.82;3.38;;;;;;;;;;6288421;22;20005;-90
2023/06/06 15:53:13;;;;;;;9.82;3.80;;;;;;;;;;6315168;22;20433;-89
2023/06/06 15:55:40;;;;;;;10.73;3.42;;;;;;;;;;6315345;22;20064;-90
2023/06/06 15:58:09;;;;;;;7.90;3.65;;;;;;;;;;6315177;22;20026;-89
2023/06/06 16:00:36;;;;;;;11.30;3.97;;;;;;;;;;6315922;22;20270;-91
2023/06/06 16:03:05;;;;;;;10.38;3.70;;;;;;;;;;6316072;22;20007;-89
2023/06/06 16:05:31;;;;;;;13.90;3.85;;;;;;;;;;6316001;22;20405;-90
2023/06/06 16:07:59;;;;;;;8.75;3.75;;;;;;;;;;6288881;22;20025;-89
2023/06/06 16:10:25;;;;;;;6.68;3.50;;;;;;;;;;6311807;22;20007;-89
2023/06/06 16:12:51;;;;;;;13.73;4.15;;;;;;;;;;6308661;22;20098;-89
2023/06/06 16:15:22;;;;;;;10.10;3.80;;;;;;;;;;6288226;22;20514;-88
2023/06/06 16:17:48;;;;;;;10.77;4.07;;;;;;;;;;6315827;22;20258;-89
2023/06/06 16:20:14;;;;;;;10.45;4.65;;;;;;;;;;6315198;22;20003;-89
2023/06/06 16:23:00;;;;;;;11.32;4.13;;;;;;;;;;6313172;22;19996;-89
2023/06/06 16:25:40;;;;;;;8.70;3.58;;;;;;;;;;6316459;22;20015;-90
2023/06/06 16:28:07;;;;;;;10.50;3.83;;;;;;;;;;6315439;22;20015;-89
2023/06/06 16:30:34;;;;;;;14.70;3.90;;;;;;;;;;6289447;22;20125;-87
2023/06/06 16:33:03;;;;;;;13.07;4.45;;;;;;;;;;6315340;22;20531;-90
2023/06/06 16:35:34;;;;;;;9.73;3.72;;;;;;;;;;6313751;22;20010;-88
2023/06/06 16:38:00;;;;;;;9.63;3.83;;;;;;;;;;6313040;22;20429;-90
2023/06/06 16:40:31;;;;;;;7.72;4.32;;;;;;;;;;6314272;22;20464;-90
2023/06/06 16:42:58;;;;;;;9.95;3.40;;;;;;;;;;6314443;22;19999;-90
2023/06/06 16:45:37;;;;;;;7.47;3.80;;;;;;;;;;6313525;22;20007;-89
2023/06/06 16:48:10;;;;;;;9.93;3.92;;;;;;;;;;6320486;22;19999;-90
2023/06/06 16:51:16;;;;;;;9.70;3.47;;;;;;;;;;6305511;22;20037;-90
2023/06/06 16:53:49;;;;;;;15.30;5.57;;;;;;;;;;6323710;22;20034;-89
2023/06/06 16:56:26;;;;;;;10.43;5.05;;;;;;;;;;6304588;22;20448;-88
2023/06/06 16:58:56;;;;;;;8.18;4.30;;;;;;;;;;6254101;23;20119;-89
2023/06/06 17:01:35;;;;;;;11.10;4.30;;;;;;;;;;6290830;22;19999;-90
2023/06/06 17:04:25;;;;;;;16.85;4.88;;;;;;;;;;6268312;22;20011;-88
2023/06/06 17:07:05;;;;;;;;;;;;;;;;;;;;;
2023/06/06 17:09:35;;;;;;;11.82;4.63;;;;;;;;;;6320680;22;20038;-89
2023/06/06 17:12:37;;;;;;;12.93;4.78;;;;;;;;;;6316395;22;20043;-88
2023/06/06 17:15:09;;;;;;;15.15;4.78;;;;;;;;;;6313316;22;20025;-88
2023/06/06 17:18:01;;;;;;;14.60;5.45;;;;;;;;;;6291617;22;20011;-88
2023/06/06 17:20:48;;;;;;;11.90;4.47;;;;;;;;;;6315096;22;20014;-90
2023/06/06 17:23:50;;;;;;;16.08;4.90;;;;;;;;;;6292498;22;20012;-90
2023/06/06 17:26:22;;;;;;;17.00;4.43;;;;;;;;;;6312898;22;20011;-89
2023/06/06 17:28:57;;;;;;;8.45;4.07;;;;;;;;;;6311186;22;20026;-89
2023/06/06 17:31:51;;;;;;;;;;;;;;;;;;;;;
2023/06/06 17:34:28;;;;;;;15.15;4.78;;;;;;;;;;6314607;22;20030;-89
2023/06/06 17:37:13;;;;;;;19.00;4.63;;;;;;;;;;6313041;22;20062;-89
2023/06/06 17:39:43;;;;;;;8.95;4.43;;;;;;;;;;6309028;22;20007;-89
2023/06/06 17:45:23;;;;;;;15.75;3.97;;;;;;;;;;6303860;22;20019;-88
2023/06/06 17:47:50;;;;;;;;;;;;;;;;;;6291302;22;20035;-88
2023/06/06 17:50:28;;;;;;;9.38;3.92;;;;;;;;;;6311873;22;19929;-88
2023/06/06 17:52:55;;;;;;;11.45;4.10;;;;;;;;;;6314664;22;20083;-88
2023/06/06 17:55:29;;;;;;;12.77;4.70;;;;;;;;;;6312531;22;20045;-89
2023/06/06 17:57:55;;;;;;;11.57;3.78;;;;;;;;;;6314919;22;20488;-88
2023/06/06 18:00:26;;;;;;;12.27;4.00;;;;;;;;;;6314640;22;20003;-89
2023/06/06 18:03:03;;;;;;;13.43;4.00;;;;;;;;;;6317571;22;20008;-90
2023/06/06 18:05:34;;;;;;;13.30;4.43;;;;;;;;;;6317620;22;20014;-89
2023/06/06 18:08:05;;;;;;;17.02;5.70;;;;;;;;;;6291084;22;20015;-89
2023/06/06 18:10:37;;;;;;;7.93;3.95;;;;;;;;;;6291624;22;20014;-90
2023/06/06 18:13:04;;;;;;;12.98;4.65;;;;;;;;;;6262852;22;20073;-90
2023/06/06 18:18:26;;;;;;;18.00;4.05;;;;;;;;;;6249758;23;20008;-90